createdAt,value
2023-04-15T00:00:22.350Z,17.2
2023-04-15T00:05:16.297Z,17.2
2023-04-15T00:10:16.267Z,17.2
2023-04-15T00:15:14.281Z,17.2
2023-04-15T00:20:16.319Z,17.2
2023-04-15T00:25:20.552Z,17.3
2023-04-15T00:30:16.513Z,17.2
2023-04-15T00:35:18.317Z,17.2
2023-04-15T00:40:16.299Z,17.2
2023-04-15T00:45:16.128Z,17.2
2023-04-15T00:50:20.126Z,17.2
2023-04-15T00:55:20.162Z,17.2
2023-04-15T01:00:18.122Z,17.2
2023-04-15T01:05:16.207Z,17.2
2023-04-15T01:10:14.153Z,17.2
2023-04-15T01:15:18.237Z,17.2
2023-04-15T01:20:14.287Z,17.2
2023-04-15T01:25:16.374Z,17.2
2023-04-15T01:30:16.397Z,17.2
2023-04-15T01:35:18.369Z,17.2
2023-04-15T01:40:16.265Z,17.2
2023-04-15T01:45:18.377Z,17.2
2023-04-15T01:50:20.426Z,17.2
2023-04-15T01:55:20.582Z,17.2
2023-04-15T02:00:18.519Z,17.2
2023-04-15T02:05:16.268Z,17.2
2023-04-15T02:10:20.407Z,17.2
2023-04-15T02:15:18.308Z,17.2
2023-04-15T02:20:18.105Z,17.2
2023-04-15T02:25:16.036Z,17.2
2023-04-15T02:30:16.143Z,17.2
2023-04-15T02:35:19.821Z,17.2
2023-04-15T02:40:17.816Z,17.2
2023-04-15T02:45:17.957Z,17.2
2023-04-15T02:50:17.927Z,17.2
2023-04-15T02:55:16.082Z,17.2
2023-04-15T03:00:18.197Z,17.2
2023-04-15T03:05:15.979Z,17.2
2023-04-15T03:10:15.703Z,17.2
2023-04-15T03:15:17.733Z,17.2
2023-04-15T03:20:15.957Z,17.2
2023-04-15T03:25:15.993Z,17.2
2023-04-15T03:30:20.341Z,17.2
2023-04-15T03:35:16.136Z,17.2
2023-04-15T03:40:20.277Z,17.2
2023-04-15T03:45:18.224Z,17.2
2023-04-15T03:50:14.035Z,17.2
2023-04-15T03:55:13.876Z,17.2
2023-04-15T04:00:19.774Z,17.2
2023-04-15T04:05:15.954Z,17.2
2023-04-15T04:10:26.005Z,17.2
2023-04-15T04:15:20.907Z,17.2
2023-04-15T04:20:17.824Z,17.2
2023-04-15T04:25:17.983Z,17.2
2023-04-15T04:30:22.015Z,17.2
2023-04-15T04:35:18.192Z,17.1
2023-04-15T04:40:18.082Z,17.1
2023-04-15T04:45:18.200Z,17.1
2023-04-15T04:50:18.272Z,17.2
2023-04-15T04:55:14.058Z,17.1
2023-04-15T05:00:14.296Z,17.1
2023-04-15T05:05:18.258Z,17.1
2023-04-15T05:10:18.438Z,17.1
2023-04-15T05:15:14.366Z,17.1
2023-04-15T05:20:20.371Z,17.2
2023-04-15T05:25:16.469Z,17.1
2023-04-15T05:30:20.623Z,17.1
2023-04-15T05:35:14.532Z,17.1
2023-04-15T05:40:18.596Z,17.1
2023-04-15T05:45:20.527Z,17.1
2023-04-15T05:50:14.516Z,17.1
2023-04-15T05:55:14.296Z,17.2
2023-04-15T06:00:22.269Z,17.1
2023-04-15T06:05:14.409Z,17.1
2023-04-15T06:10:22.740Z,17.1
2023-04-15T06:15:23.500Z,17.1
2023-04-15T06:20:16.680Z,17.1
2023-04-15T06:25:26.663Z,17.2
2023-04-15T06:30:21.530Z,17.2
2023-04-15T06:35:16.146Z,17.1
2023-04-15T06:40:16.236Z,17.1
2023-04-15T06:45:18.428Z,17.1
2023-04-15T06:50:16.249Z,17.1
2023-04-15T06:55:18.211Z,17.2
2023-04-15T07:00:18.148Z,17.1
2023-04-15T07:07:29.497Z,17.1
2023-04-15T07:12:26.475Z,17.1
2023-04-15T07:17:28.554Z,17.1
2023-04-15T07:20:19.563Z,17.1
2023-04-15T07:25:16.901Z,17.1
2023-04-15T07:30:17.777Z,17.1
2023-04-15T07:35:19.890Z,17.1
2023-04-15T07:40:13.906Z,17.1
2023-04-15T07:45:18.267Z,17.1
2023-04-15T07:50:18.086Z,17.2
2023-04-15T07:55:19.887Z,17.2
2023-04-15T08:00:15.837Z,17.2
2023-04-15T08:05:16.419Z,17.2
2023-04-15T08:10:22.586Z,17.2
2023-04-15T08:15:16.746Z,17.2
2023-04-15T08:20:17.913Z,17.2
2023-04-15T08:25:15.830Z,17.2
2023-04-15T08:30:16.906Z,17.2
2023-04-15T08:35:19.669Z,17.2
2023-04-15T08:40:18.832Z,17.2
2023-04-15T08:45:15.854Z,17.2
2023-04-15T08:50:21.792Z,17.2
2023-04-15T08:55:21.598Z,17.2
2023-04-15T09:00:21.135Z,17.2
2023-04-15T09:05:17.623Z,17.2
2023-04-15T09:10:14.672Z,17.2
2023-04-15T09:15:16.520Z,17.2
2023-04-15T09:20:14.508Z,17.2
2023-04-15T09:25:20.309Z,17.2
2023-04-15T09:30:24.569Z,17.2
2023-04-15T09:35:16.424Z,17.3
2023-04-15T09:40:16.375Z,17.3
2023-04-15T09:45:14.493Z,17.3
2023-04-15T09:50:16.907Z,17.3
2023-04-15T09:55:22.015Z,17.3
2023-04-15T10:00:21.883Z,17.3
2023-04-15T10:05:22.941Z,17.3
2023-04-15T10:10:13.816Z,17.3
2023-04-15T10:15:17.690Z,17.3
2023-04-15T10:20:19.242Z,17.3
2023-04-15T10:25:20.409Z,17.3
2023-04-15T10:30:24.418Z,17.4
2023-04-15T10:35:14.236Z,17.4
2023-04-15T10:40:20.838Z,17.4
2023-04-15T10:45:13.878Z,17.4
2023-04-15T10:50:20.049Z,17.4
2023-04-15T10:55:18.053Z,17.4
2023-04-15T11:00:15.926Z,17.4
2023-04-15T11:05:15.774Z,17.4
2023-04-15T11:10:22.844Z,17.4
2023-04-15T11:15:21.829Z,17.4
2023-04-15T11:20:15.772Z,17.4
2023-04-15T11:25:15.711Z,17.4
2023-04-15T11:30:17.825Z,17.4
2023-04-15T11:35:18.124Z,17.5
2023-04-15T11:40:20.184Z,17.5
2023-04-15T11:45:24.136Z,17.5
2023-04-15T11:50:14.356Z,17.5
2023-04-15T11:55:14.261Z,17.5
2023-04-15T12:00:16.434Z,17.5
2023-04-15T12:05:17.059Z,17.5
2023-04-15T12:10:24.557Z,17.5
2023-04-15T12:15:14.551Z,17.5
2023-04-15T12:20:18.640Z,17.5
2023-04-15T12:25:16.605Z,17.5
2023-04-15T12:30:16.768Z,17.5
2023-04-15T12:35:13.452Z,17.5
2023-04-15T12:40:18.631Z,17.6
2023-04-15T12:45:16.704Z,17.5
2023-04-15T12:50:18.566Z,17.6
2023-04-15T12:55:20.564Z,17.5
2023-04-15T13:00:16.378Z,17.6
2023-04-15T13:05:14.760Z,17.6
2023-04-15T13:10:21.699Z,17.5
2023-04-15T13:15:19.216Z,17.5
2023-04-15T13:20:20.065Z,17.5
2023-04-15T13:25:13.916Z,17.5
2023-04-15T13:30:30.087Z,17.5
2023-04-15T13:35:16.230Z,17.5
2023-04-15T13:40:18.308Z,17.5
2023-04-15T13:45:22.288Z,17.5
2023-04-15T13:50:20.244Z,17.5
2023-04-15T13:55:37.932Z,17.5
2023-04-15T14:00:16.120Z,17.5
2023-04-15T14:05:17.541Z,17.5
2023-04-15T14:10:22.675Z,17.5
2023-04-15T14:15:24.532Z,17.5
2023-04-15T14:20:18.592Z,17.5
2023-04-15T14:25:26.885Z,17.5
2023-04-15T14:30:16.560Z,17.5
2023-04-15T14:35:18.304Z,17.5
2023-04-15T14:40:28.672Z,17.5
2023-04-15T14:50:24.387Z,17.5
2023-04-15T14:55:18.394Z,17.5
2023-04-15T15:00:18.354Z,17.5
2023-04-15T15:05:14.777Z,17.5
2023-04-15T15:10:32.691Z,17.5
2023-04-15T15:15:44.466Z,17.5
2023-04-15T15:20:16.702Z,17.5
2023-04-15T15:25:17.986Z,17.5
2023-04-15T15:30:18.047Z,17.4
2023-04-15T15:35:13.891Z,17.5
2023-04-15T15:40:15.918Z,17.5
2023-04-15T15:45:15.879Z,17.5
2023-04-15T15:50:19.748Z,17.5
2023-04-15T15:55:15.536Z,17.5
2023-04-15T16:05:16.938Z,17.5
2023-04-15T16:10:13.769Z,17.5
2023-04-15T16:15:15.732Z,17.5
2023-04-15T16:20:16.240Z,17.5
2023-04-15T16:25:14.361Z,17.5
2023-04-15T16:30:18.200Z,17.5
2023-04-15T16:35:19.606Z,17.5
2023-04-15T16:40:14.749Z,17.5
2023-04-15T16:45:13.599Z,17.5
2023-04-15T16:50:20.348Z,17.5
2023-04-15T16:55:16.397Z,17.5
2023-04-15T17:00:18.372Z,17.6
2023-04-15T17:05:26.236Z,17.6
2023-04-15T17:10:20.120Z,17.6
2023-04-15T17:15:14.246Z,17.6
2023-04-15T17:20:16.337Z,17.6
2023-04-15T17:25:14.215Z,17.6
2023-04-15T17:30:16.256Z,17.6
2023-04-15T17:35:20.200Z,17.6
2023-04-15T17:40:16.048Z,17.6
2023-04-15T17:45:18.052Z,17.6
2023-04-15T17:50:18.127Z,17.6
2023-04-15T17:55:14.175Z,17.6
2023-04-15T18:00:14.388Z,17.5
2023-04-15T18:05:16.971Z,17.5
2023-04-15T18:10:21.991Z,17.5
2023-04-15T18:15:15.828Z,17.5
2023-04-15T18:20:17.819Z,17.5
2023-04-15T18:25:17.767Z,17.5
2023-04-15T18:30:17.786Z,17.5
2023-04-15T18:35:27.542Z,17.5
2023-04-15T18:40:16.404Z,17.5
2023-04-15T18:45:14.513Z,17.4
2023-04-15T18:50:14.551Z,17.4
2023-04-15T18:55:15.051Z,17.4
2023-04-15T19:00:18.029Z,17.4
2023-04-15T19:05:19.744Z,17.4
2023-04-15T19:10:19.751Z,17.4
2023-04-15T19:15:23.844Z,17.4
2023-04-15T19:20:17.800Z,17.4
2023-04-15T19:25:19.741Z,17.4
2023-04-15T19:30:25.767Z,17.4
2023-04-15T19:35:21.933Z,17.4
2023-04-15T19:40:23.959Z,17.4
2023-04-15T19:45:15.707Z,17.4
2023-04-15T19:50:16.446Z,17.4
2023-04-15T19:55:22.424Z,17.4
2023-04-15T20:00:14.569Z,17.4
2023-04-15T20:05:14.479Z,17.4
2023-04-15T20:10:26.468Z,17.3
2023-04-15T20:15:20.420Z,17.3
2023-04-15T20:20:18.152Z,17.3
2023-04-15T20:25:20.247Z,17.3
2023-04-15T20:30:20.239Z,17.3
2023-04-15T20:35:16.057Z,17.3
2023-04-15T20:40:20.053Z,17.3
2023-04-15T20:45:16.205Z,17.3
2023-04-15T20:50:16.039Z,17.3
2023-04-15T20:55:22.173Z,17.3
2023-04-15T21:00:16.273Z,17.3
2023-04-15T21:05:14.351Z,17.3
2023-04-15T21:10:16.209Z,17.3
2023-04-15T21:15:22.122Z,17.3
2023-04-15T21:20:18.119Z,17.3
2023-04-15T21:25:16.337Z,17.2
2023-04-15T21:30:16.223Z,17.3
2023-04-15T21:35:16.159Z,17.2
2023-04-15T21:40:25.865Z,17.3
2023-04-15T21:45:13.761Z,17.3
2023-04-15T21:50:17.878Z,17.2
2023-04-15T21:55:17.558Z,17.3
2023-04-15T22:00:18.307Z,17.2
2023-04-15T22:05:16.222Z,17.2
2023-04-15T22:10:20.020Z,17.2
2023-04-15T22:15:22.016Z,17.2
2023-04-15T22:20:21.861Z,17.2
2023-04-15T22:25:24.011Z,17.2
2023-04-15T22:30:14.080Z,17.2
2023-04-15T22:35:19.888Z,17.2
2023-04-15T22:40:17.713Z,17.2
2023-04-15T22:45:14.499Z,17.3
2023-04-15T22:50:20.251Z,17.4
2023-04-15T22:55:16.447Z,17.5
2023-04-15T23:00:16.496Z,17.5
2023-04-15T23:05:34.984Z,17.6
2023-04-15T23:10:19.777Z,17.7
2023-04-15T23:15:15.736Z,17.7
2023-04-15T23:20:27.844Z,17.7
2023-04-15T23:25:19.814Z,17.7
2023-04-15T23:30:15.606Z,17.7
2023-04-15T23:35:20.616Z,17.7
2023-04-15T23:40:20.548Z,17.7
2023-04-15T23:45:20.780Z,17.8
2023-04-15T23:50:19.535Z,17.7
2023-04-15T23:55:14.442Z,17.8
